sensor_id;sensor_type;location;lat;lon;timestamp;P1;durP1;ratioP1;P2;durP2;ratioP2
12290;SDS011;6208;48.956;9.076;2022-11-20T14:39:22;4.88;;;2.67;;
12290;SDS011;6208;48.956;9.076;2022-11-20T14:42:31;9.07;;;2.55;;
12290;SDS011;6208;48.956;9.076;2022-11-20T14:45:15;4.88;;;2.20;;
12290;SDS011;6208;48.956;9.076;2022-11-20T14:48:00;4.03;;;1.13;;
12290;SDS011;6208;48.956;9.076;2022-11-20T14:50:44;6.15;;;1.63;;
12290;SDS011;6208;48.956;9.076;2022-11-20T14:53:28;5.65;;;2.00;;
12290;SDS011;6208;48.956;9.076;2022-11-20T14:56:12;3.70;;;2.05;;
12290;SDS011;6208;48.956;9.076;2022-11-20T14:59:08;2.50;;;1.88;;
12290;SDS011;6208;48.956;9.076;2022-11-20T15:02:03;5.20;;;2.25;;
12290;SDS011;6208;48.956;9.076;2022-11-20T15:04:59;10.57;;;2.15;;
12290;SDS011;6208;48.956;9.076;2022-11-20T15:07:48;4.45;;;1.75;;
12290;SDS011;6208;48.956;9.076;2022-11-20T15:10:34;7.05;;;2.03;;
12290;SDS011;6208;48.956;9.076;2022-11-20T15:13:51;5.50;;;1.73;;
12290;SDS011;6208;48.956;9.076;2022-11-20T15:16:29;2.45;;;1.35;;
12290;SDS011;6208;48.956;9.076;2022-11-20T15:19:17;4.38;;;1.50;;
12290;SDS011;6208;48.956;9.076;2022-11-20T15:22:09;4.53;;;1.48;;
12290;SDS011;6208;48.956;9.076;2022-11-20T15:24:59;2.92;;;1.65;;
12290;SDS011;6208;48.956;9.076;2022-11-20T15:27:44;1.85;;;1.50;;
12290;SDS011;6208;48.956;9.076;2022-11-20T15:30:30;2.33;;;1.55;;
12290;SDS011;6208;48.956;9.076;2022-11-20T15:40:18;2.22;;;1.25;;
12290;SDS011;6208;48.956;9.076;2022-11-20T15:43:02;1.45;;;1.33;;
12290;SDS011;6208;48.956;9.076;2022-11-20T15:46:00;1.25;;;1.15;;
12290;SDS011;6208;48.956;9.076;2022-11-20T15:49:08;2.83;;;1.00;;
12290;SDS011;6208;48.956;9.076;2022-11-20T15:51:56;1.17;;;1.10;;
12290;SDS011;6208;48.956;9.076;2022-11-20T15:54:40;1.25;;;1.08;;
12290;SDS011;6208;48.956;9.076;2022-11-20T15:57:24;1.20;;;1.13;;
12290;SDS011;6208;48.956;9.076;2022-11-20T16:00:11;0.68;;;0.68;;
12290;SDS011;6208;48.956;9.076;2022-11-20T16:02:55;0.93;;;0.93;;
12290;SDS011;6208;48.956;9.076;2022-11-20T16:05:39;1.17;;;1.02;;
12290;SDS011;6208;48.956;9.076;2022-11-20T16:08:23;1.20;;;1.10;;
12290;SDS011;6208;48.956;9.076;2022-11-20T16:11:10;0.95;;;0.75;;
12290;SDS011;6208;48.956;9.076;2022-11-20T16:13:56;1.42;;;1.33;;
12290;SDS011;6208;48.956;9.076;2022-11-20T16:16:59;8.43;;;1.88;;
12290;SDS011;6208;48.956;9.076;2022-11-20T16:19:43;3.85;;;1.80;;
12290;SDS011;6208;48.956;9.076;2022-11-20T16:22:28;2.55;;;1.63;;
12290;SDS011;6208;48.956;9.076;2022-11-20T16:25:12;2.83;;;1.35;;
12290;SDS011;6208;48.956;9.076;2022-11-20T16:27:56;1.48;;;1.10;;
12290;SDS011;6208;48.956;9.076;2022-11-20T16:30:40;1.48;;;0.93;;
12290;SDS011;6208;48.956;9.076;2022-11-20T16:33:24;0.98;;;0.98;;
12290;SDS011;6208;48.956;9.076;2022-11-20T16:36:12;0.98;;;0.93;;
12290;SDS011;6208;48.956;9.076;2022-11-20T16:38:58;1.00;;;0.88;;
12290;SDS011;6208;48.956;9.076;2022-11-20T16:41:44;1.08;;;1.08;;
12290;SDS011;6208;48.956;9.076;2022-11-20T16:44:29;0.82;;;0.82;;
12290;SDS011;6208;48.956;9.076;2022-11-20T16:47:13;0.90;;;0.90;;
12290;SDS011;6208;48.956;9.076;2022-11-20T16:49:58;0.90;;;0.90;;
12290;SDS011;6208;48.956;9.076;2022-11-20T16:52:43;1.17;;;0.82;;
12290;SDS011;6208;48.956;9.076;2022-11-20T16:55:27;1.00;;;0.95;;
12290;SDS011;6208;48.956;9.076;2022-11-20T16:58:12;0.80;;;0.80;;
12290;SDS011;6208;48.956;9.076;2022-11-20T17:00:58;1.23;;;1.02;;
12290;SDS011;6208;48.956;9.076;2022-11-20T17:03:56;2.22;;;1.52;;
12290;SDS011;6208;48.956;9.076;2022-11-20T17:06:42;3.63;;;1.70;;
12290;SDS011;6208;48.956;9.076;2022-11-20T17:09:26;2.30;;;2.08;;
12290;SDS011;6208;48.956;9.076;2022-11-20T17:12:11;3.92;;;2.30;;
12290;SDS011;6208;48.956;9.076;2022-11-20T17:14:55;2.80;;;2.13;;
12290;SDS011;6208;48.956;9.076;2022-11-20T17:17:40;2.80;;;2.05;;
12290;SDS011;6208;48.956;9.076;2022-11-20T17:20:24;5.90;;;2.80;;
12290;SDS011;6208;48.956;9.076;2022-11-20T17:23:09;4.72;;;2.50;;
12290;SDS011;6208;48.956;9.076;2022-11-20T17:29:01;2.42;;;2.00;;
12290;SDS011;6208;48.956;9.076;2022-11-20T17:31:52;4.65;;;2.28;;
12290;SDS011;6208;48.956;9.076;2022-11-20T17:34:37;2.30;;;2.10;;
12290;SDS011;6208;48.956;9.076;2022-11-20T17:37:21;3.20;;;1.77;;
12290;SDS011;6208;48.956;9.076;2022-11-20T17:40:08;1.95;;;1.75;;
12290;SDS011;6208;48.956;9.076;2022-11-20T17:42:53;3.38;;;2.03;;
12290;SDS011;6208;48.956;9.076;2022-11-20T17:45:37;3.55;;;1.70;;
12290;SDS011;6208;48.956;9.076;2022-11-20T17:48:22;4.72;;;2.20;;
12290;SDS011;6208;48.956;9.076;2022-11-20T17:51:08;2.58;;;1.80;;
12290;SDS011;6208;48.956;9.076;2022-11-20T17:54:01;2.95;;;1.92;;
12290;SDS011;6208;48.956;9.076;2022-11-20T17:56:47;3.25;;;1.83;;
12290;SDS011;6208;48.956;9.076;2022-11-20T17:59:50;2.65;;;1.75;;
12290;SDS011;6208;48.956;9.076;2022-11-20T18:02:35;2.85;;;2.10;;
12290;SDS011;6208;48.956;9.076;2022-11-20T18:05:19;2.22;;;2.03;;
12290;SDS011;6208;48.956;9.076;2022-11-20T18:08:04;6.07;;;2.97;;
12290;SDS011;6208;48.956;9.076;2022-11-20T18:13:41;7.00;;;2.75;;
12290;SDS011;6208;48.956;9.076;2022-11-20T18:16:47;4.32;;;2.38;;
12290;SDS011;6208;48.956;9.076;2022-11-20T18:19:52;3.67;;;2.50;;
12290;SDS011;6208;48.956;9.076;2022-11-20T18:22:36;4.32;;;2.67;;
12290;SDS011;6208;48.956;9.076;2022-11-20T18:25:20;9.15;;;2.60;;
12290;SDS011;6208;48.956;9.076;2022-11-20T18:28:05;4.28;;;2.17;;
12290;SDS011;6208;48.956;9.076;2022-11-20T18:30:49;4.55;;;2.75;;
12290;SDS011;6208;48.956;9.076;2022-11-20T18:33:34;7.60;;;2.85;;
12290;SDS011;6208;48.956;9.076;2022-11-20T18:36:19;4.63;;;2.53;;
12290;SDS011;6208;48.956;9.076;2022-11-20T18:39:08;4.57;;;2.33;;
12290;SDS011;6208;48.956;9.076;2022-11-20T18:41:54;5.90;;;2.38;;
12290;SDS011;6208;48.956;9.076;2022-11-20T18:44:58;10.73;;;2.47;;
12290;SDS011;6208;48.956;9.076;2022-11-20T18:47:43;4.47;;;2.40;;
12290;SDS011;6208;48.956;9.076;2022-11-20T18:50:28;4.68;;;2.30;;
12290;SDS011;6208;48.956;9.076;2022-11-20T18:53:12;7.03;;;2.42;;
12290;SDS011;6208;48.956;9.076;2022-11-20T18:55:57;4.78;;;2.92;;
12290;SDS011;6208;48.956;9.076;2022-11-20T18:58:42;5.50;;;3.50;;
12290;SDS011;6208;48.956;9.076;2022-11-20T19:01:26;8.00;;;6.65;;
12290;SDS011;6208;48.956;9.076;2022-11-20T19:04:10;11.00;;;8.55;;
12290;SDS011;6208;48.956;9.076;2022-11-20T19:06:56;9.07;;;7.45;;
12290;SDS011;6208;48.956;9.076;2022-11-20T19:09:42;15.85;;;13.23;;
12290;SDS011;6208;48.956;9.076;2022-11-20T19:12:27;17.20;;;13.77;;
12290;SDS011;6208;48.956;9.076;2022-11-20T19:15:12;20.98;;;13.27;;
12290;SDS011;6208;48.956;9.076;2022-11-20T19:17:56;20.15;;;12.23;;
12290;SDS011;6208;48.956;9.076;2022-11-20T19:20:41;37.70;;;12.98;;
12290;SDS011;6208;48.956;9.076;2022-11-20T19:23:26;20.15;;;11.05;;
12290;SDS011;6208;48.956;9.076;2022-11-20T19:26:10;42.20;;;11.40;;
12290;SDS011;6208;48.956;9.076;2022-11-20T19:28:54;22.10;;;10.18;;
12290;SDS011;6208;48.956;9.076;2022-11-20T19:31:39;21.90;;;9.07;;
12290;SDS011;6208;48.956;9.076;2022-11-20T19:34:23;29.38;;;9.25;;
12290;SDS011;6208;48.956;9.076;2022-11-20T19:37:09;16.40;;;7.57;;
12290;SDS011;6208;48.956;9.076;2022-11-20T19:39:53;18.23;;;7.60;;
12290;SDS011;6208;48.956;9.076;2022-11-20T19:42:41;17.58;;;8.30;;
12290;SDS011;6208;48.956;9.076;2022-11-20T19:45:25;14.02;;;6.30;;
12290;SDS011;6208;48.956;9.076;2022-11-20T19:48:10;11.23;;;5.45;;
12290;SDS011;6208;48.956;9.076;2022-11-20T19:50:54;11.90;;;5.70;;
12290;SDS011;6208;48.956;9.076;2022-11-20T19:53:39;12.25;;;5.25;;
12290;SDS011;6208;48.956;9.076;2022-11-20T19:56:25;13.90;;;4.90;;
12290;SDS011;6208;48.956;9.076;2022-11-20T19:59:10;11.63;;;4.85;;
12290;SDS011;6208;48.956;9.076;2022-11-20T20:01:55;9.48;;;4.72;;
12290;SDS011;6208;48.956;9.076;2022-11-20T20:04:40;5.22;;;4.25;;
12290;SDS011;6208;48.956;9.076;2022-11-20T20:07:25;9.35;;;4.07;;
12290;SDS011;6208;48.956;9.076;2022-11-20T20:10:10;8.60;;;4.10;;
12290;SDS011;6208;48.956;9.076;2022-11-20T20:12:54;7.72;;;3.60;;
12290;SDS011;6208;48.956;9.076;2022-11-20T20:15:39;10.40;;;5.15;;
12290;SDS011;6208;48.956;9.076;2022-11-20T20:18:24;23.67;;;5.60;;
12290;SDS011;6208;48.956;9.076;2022-11-20T20:21:10;12.07;;;4.53;;
12290;SDS011;6208;48.956;9.076;2022-11-20T20:23:56;25.20;;;4.82;;
12290;SDS011;6208;48.956;9.076;2022-11-20T20:26:41;10.73;;;3.90;;
12290;SDS011;6208;48.956;9.076;2022-11-20T20:29:26;18.77;;;4.57;;
12290;SDS011;6208;48.956;9.076;2022-11-20T20:32:10;9.98;;;4.35;;
12290;SDS011;6208;48.956;9.076;2022-11-20T20:34:55;20.13;;;3.90;;
12290;SDS011;6208;48.956;9.076;2022-11-20T20:37:39;18.23;;;3.97;;
12290;SDS011;6208;48.956;9.076;2022-11-20T20:40:25;24.02;;;4.05;;
12290;SDS011;6208;48.956;9.076;2022-11-20T20:43:09;11.82;;;4.50;;
12290;SDS011;6208;48.956;9.076;2022-11-20T20:45:54;8.75;;;3.22;;
12290;SDS011;6208;48.956;9.076;2022-11-20T20:48:38;11.40;;;3.38;;
12290;SDS011;6208;48.956;9.076;2022-11-20T20:51:23;9.10;;;3.60;;
12290;SDS011;6208;48.956;9.076;2022-11-20T20:54:07;9.82;;;3.28;;
12290;SDS011;6208;48.956;9.076;2022-11-20T20:56:52;5.57;;;3.13;;
12290;SDS011;6208;48.956;9.076;2022-11-20T20:59:36;5.03;;;3.10;;
12290;SDS011;6208;48.956;9.076;2022-11-20T21:02:21;3.95;;;2.60;;
12290;SDS011;6208;48.956;9.076;2022-11-20T21:05:06;8.90;;;2.97;;
12290;SDS011;6208;48.956;9.076;2022-11-20T21:07:50;3.28;;;2.28;;
12290;SDS011;6208;48.956;9.076;2022-11-20T21:10:54;6.75;;;2.92;;
12290;SDS011;6208;48.956;9.076;2022-11-20T21:13:44;11.15;;;2.70;;
12290;SDS011;6208;48.956;9.076;2022-11-20T21:16:29;5.50;;;3.00;;
12290;SDS011;6208;48.956;9.076;2022-11-20T21:19:23;4.07;;;2.58;;
12290;SDS011;6208;48.956;9.076;2022-11-20T21:22:07;5.38;;;2.80;;
12290;SDS011;6208;48.956;9.076;2022-11-20T21:24:52;6.38;;;2.40;;
12290;SDS011;6208;48.956;9.076;2022-11-20T21:27:36;4.55;;;2.20;;
12290;SDS011;6208;48.956;9.076;2022-11-20T21:30:21;8.27;;;2.50;;
12290;SDS011;6208;48.956;9.076;2022-11-20T21:33:05;7.28;;;2.80;;
12290;SDS011;6208;48.956;9.076;2022-11-20T21:35:50;4.45;;;2.28;;
12290;SDS011;6208;48.956;9.076;2022-11-20T21:38:35;7.28;;;2.40;;
12290;SDS011;6208;48.956;9.076;2022-11-20T21:41:19;10.13;;;2.70;;
12290;SDS011;6208;48.956;9.076;2022-11-20T21:44:04;9.43;;;2.33;;
12290;SDS011;6208;48.956;9.076;2022-11-20T21:46:49;4.72;;;2.25;;
12290;SDS011;6208;48.956;9.076;2022-11-20T21:49:34;4.57;;;2.30;;
12290;SDS011;6208;48.956;9.076;2022-11-20T21:52:19;6.72;;;2.58;;
12290;SDS011;6208;48.956;9.076;2022-11-20T21:55:03;4.25;;;2.58;;
12290;SDS011;6208;48.956;9.076;2022-11-20T21:57:48;5.70;;;2.10;;
12290;SDS011;6208;48.956;9.076;2022-11-20T22:00:33;8.35;;;2.58;;
12290;SDS011;6208;48.956;9.076;2022-11-20T22:03:17;5.75;;;2.25;;
12290;SDS011;6208;48.956;9.076;2022-11-20T22:06:02;7.50;;;2.50;;
12290;SDS011;6208;48.956;9.076;2022-11-20T22:08:47;5.40;;;1.90;;
12290;SDS011;6208;48.956;9.076;2022-11-20T22:11:32;5.93;;;2.28;;
12290;SDS011;6208;48.956;9.076;2022-11-20T22:14:16;5.13;;;1.70;;
12290;SDS011;6208;48.956;9.076;2022-11-20T22:17:04;3.25;;;2.25;;
12290;SDS011;6208;48.956;9.076;2022-11-20T22:19:49;2.40;;;2.15;;
12290;SDS011;6208;48.956;9.076;2022-11-20T22:22:33;6.40;;;1.85;;
12290;SDS011;6208;48.956;9.076;2022-11-20T22:25:18;3.33;;;1.80;;
12290;SDS011;6208;48.956;9.076;2022-11-20T22:28:02;2.97;;;2.03;;
12290;SDS011;6208;48.956;9.076;2022-11-20T22:30:47;4.95;;;1.90;;
12290;SDS011;6208;48.956;9.076;2022-11-20T22:33:32;2.72;;;1.77;;
12290;SDS011;6208;48.956;9.076;2022-11-20T22:36:18;4.25;;;2.10;;
12290;SDS011;6208;48.956;9.076;2022-11-20T22:39:05;4.95;;;2.08;;
12290;SDS011;6208;48.956;9.076;2022-11-20T22:41:50;2.67;;;1.63;;
12290;SDS011;6208;48.956;9.076;2022-11-20T22:44:34;5.28;;;1.90;;
12290;SDS011;6208;48.956;9.076;2022-11-20T22:47:19;3.70;;;1.50;;
12290;SDS011;6208;48.956;9.076;2022-11-20T22:50:03;6.55;;;1.73;;
12290;SDS011;6208;48.956;9.076;2022-11-20T22:52:48;5.07;;;1.52;;
12290;SDS011;6208;48.956;9.076;2022-11-20T22:55:33;5.85;;;1.58;;
12290;SDS011;6208;48.956;9.076;2022-11-20T22:58:17;5.47;;;1.65;;
12290;SDS011;6208;48.956;9.076;2022-11-20T23:01:21;2.83;;;1.50;;
12290;SDS011;6208;48.956;9.076;2022-11-20T23:04:08;1.55;;;1.45;;
12290;SDS011;6208;48.956;9.076;2022-11-20T23:06:53;3.30;;;1.52;;
12290;SDS011;6208;48.956;9.076;2022-11-20T23:09:38;2.97;;;1.95;;
12290;SDS011;6208;48.956;9.076;2022-11-20T23:12:22;2.58;;;1.63;;
12290;SDS011;6208;48.956;9.076;2022-11-20T23:15:07;3.45;;;1.67;;
12290;SDS011;6208;48.956;9.076;2022-11-20T23:17:51;1.60;;;1.50;;
12290;SDS011;6208;48.956;9.076;2022-11-20T23:20:36;3.22;;;1.60;;
12290;SDS011;6208;48.956;9.076;2022-11-20T23:23:20;2.67;;;1.52;;
12290;SDS011;6208;48.956;9.076;2022-11-20T23:26:06;3.72;;;2.00;;
12290;SDS011;6208;48.956;9.076;2022-11-20T23:28:52;3.42;;;1.52;;
12290;SDS011;6208;48.956;9.076;2022-11-20T23:31:38;2.22;;;1.50;;
12290;SDS011;6208;48.956;9.076;2022-11-20T23:34:23;2.85;;;1.55;;
12290;SDS011;6208;48.956;9.076;2022-11-20T23:37:07;1.55;;;1.45;;
12290;SDS011;6208;48.956;9.076;2022-11-20T23:39:52;2.00;;;1.48;;
12290;SDS011;6208;48.956;9.076;2022-11-20T23:42:37;1.65;;;1.52;;
12290;SDS011;6208;48.956;9.076;2022-11-20T23:45:45;1.58;;;1.42;;
12290;SDS011;6208;48.956;9.076;2022-11-20T23:48:35;2.58;;;1.30;;
12290;SDS011;6208;48.956;9.076;2022-11-20T23:51:20;2.28;;;1.40;;
12290;SDS011;6208;48.956;9.076;2022-11-20T23:54:05;1.73;;;1.35;;
12290;SDS011;6208;48.956;9.076;2022-11-20T23:56:49;1.55;;;1.30;;
12290;SDS011;6208;48.956;9.076;2022-11-20T23:59:34;1.38;;;1.05;;
